sensor_id;sensor_type;location;lat;lon;timestamp;P1;durP1;ratioP1;P2;durP2;ratioP2
25449;SDS011;13371;52.080;5.624;2023-06-24T00:02:11;8.40;;;4.97;;
25449;SDS011;13371;52.080;5.624;2023-06-24T00:04:36;9.95;;;5.00;;
25449;SDS011;13371;52.080;5.624;2023-06-24T00:07:02;6.55;;;5.03;;
25449;SDS011;13371;52.080;5.624;2023-06-24T00:09:28;8.85;;;5.00;;
25449;SDS011;13371;52.080;5.624;2023-06-24T00:11:55;8.45;;;5.13;;
25449;SDS011;13371;52.080;5.624;2023-06-24T00:14:21;8.93;;;5.05;;
25449;SDS011;13371;52.080;5.624;2023-06-24T00:16:49;7.53;;;5.47;;
25449;SDS011;13371;52.080;5.624;2023-06-24T00:19:19;7.55;;;5.03;;
25449;SDS011;13371;52.080;5.624;2023-06-24T00:21:46;9.55;;;4.88;;
25449;SDS011;13371;52.080;5.624;2023-06-24T00:24:12;8.05;;;4.53;;
25449;SDS011;13371;52.080;5.624;2023-06-24T00:26:38;8.52;;;4.30;;
25449;SDS011;13371;52.080;5.624;2023-06-24T00:29:04;6.72;;;4.70;;
25449;SDS011;13371;52.080;5.624;2023-06-24T00:31:29;6.50;;;4.38;;
25449;SDS011;13371;52.080;5.624;2023-06-24T00:33:55;6.25;;;4.55;;
25449;SDS011;13371;52.080;5.624;2023-06-24T00:36:21;7.28;;;5.00;;
25449;SDS011;13371;52.080;5.624;2023-06-24T00:38:46;8.52;;;5.28;;
25449;SDS011;13371;52.080;5.624;2023-06-24T00:41:13;8.05;;;5.05;;
25449;SDS011;13371;52.080;5.624;2023-06-24T00:43:41;6.75;;;5.05;;
25449;SDS011;13371;52.080;5.624;2023-06-24T00:46:06;12.98;;;4.90;;
25449;SDS011;13371;52.080;5.624;2023-06-24T00:48:32;7.18;;;4.88;;
25449;SDS011;13371;52.080;5.624;2023-06-24T00:50:58;6.70;;;4.45;;
25449;SDS011;13371;52.080;5.624;2023-06-24T00:53:24;6.80;;;4.38;;
25449;SDS011;13371;52.080;5.624;2023-06-24T00:55:50;7.32;;;4.70;;
25449;SDS011;13371;52.080;5.624;2023-06-24T00:58:17;10.32;;;4.68;;
25449;SDS011;13371;52.080;5.624;2023-06-24T01:00:46;8.07;;;5.22;;
25449;SDS011;13371;52.080;5.624;2023-06-24T01:03:21;8.40;;;5.35;;
25449;SDS011;13371;52.080;5.624;2023-06-24T01:05:48;9.65;;;5.55;;
25449;SDS011;13371;52.080;5.624;2023-06-24T01:08:14;8.05;;;5.63;;
25449;SDS011;13371;52.080;5.624;2023-06-24T01:10:40;8.07;;;5.47;;
25449;SDS011;13371;52.080;5.624;2023-06-24T01:13:06;8.00;;;5.47;;
25449;SDS011;13371;52.080;5.624;2023-06-24T01:15:32;8.90;;;6.40;;
25449;SDS011;13371;52.080;5.624;2023-06-24T01:18:01;11.20;;;5.82;;
25449;SDS011;13371;52.080;5.624;2023-06-24T01:20:45;7.40;;;5.40;;
25449;SDS011;13371;52.080;5.624;2023-06-24T01:28:53;7.97;;;5.43;;
25449;SDS011;13371;52.080;5.624;2023-06-24T01:36:51;11.68;;;5.97;;
25449;SDS011;13371;52.080;5.624;2023-06-24T01:39:31;7.50;;;5.43;;
25449;SDS011;13371;52.080;5.624;2023-06-24T01:42:01;8.80;;;5.78;;
25449;SDS011;13371;52.080;5.624;2023-06-24T01:44:32;8.50;;;5.93;;
25449;SDS011;13371;52.080;5.624;2023-06-24T01:46:59;11.18;;;5.93;;
25449;SDS011;13371;52.080;5.624;2023-06-24T01:49:28;9.35;;;6.00;;
25449;SDS011;13371;52.080;5.624;2023-06-24T01:51:56;9.38;;;5.75;;
25449;SDS011;13371;52.080;5.624;2023-06-24T01:54:23;6.55;;;5.32;;
25449;SDS011;13371;52.080;5.624;2023-06-24T01:56:53;9.10;;;6.65;;
25449;SDS011;13371;52.080;5.624;2023-06-24T01:59:20;9.38;;;5.75;;
25449;SDS011;13371;52.080;5.624;2023-06-24T02:01:47;7.88;;;5.70;;
25449;SDS011;13371;52.080;5.624;2023-06-24T02:04:16;9.18;;;6.47;;
25449;SDS011;13371;52.080;5.624;2023-06-24T02:06:43;9.73;;;6.50;;
25449;SDS011;13371;52.080;5.624;2023-06-24T02:09:10;8.20;;;6.47;;
25449;SDS011;13371;52.080;5.624;2023-06-24T02:11:36;9.95;;;6.75;;
25449;SDS011;13371;52.080;5.624;2023-06-24T02:14:03;12.10;;;7.00;;
25449;SDS011;13371;52.080;5.624;2023-06-24T02:16:30;9.57;;;7.22;;
25449;SDS011;13371;52.080;5.624;2023-06-24T02:18:57;9.93;;;6.78;;
25449;SDS011;13371;52.080;5.624;2023-06-24T02:21:23;10.73;;;6.82;;
25449;SDS011;13371;52.080;5.624;2023-06-24T02:23:51;10.43;;;7.47;;
25449;SDS011;13371;52.080;5.624;2023-06-24T02:26:17;12.88;;;7.80;;
25449;SDS011;13371;52.080;5.624;2023-06-24T02:28:46;10.15;;;7.25;;
25449;SDS011;13371;52.080;5.624;2023-06-24T02:31:14;10.20;;;7.15;;
25449;SDS011;13371;52.080;5.624;2023-06-24T02:33:40;13.07;;;8.00;;
25449;SDS011;13371;52.080;5.624;2023-06-24T02:36:06;10.88;;;7.10;;
25449;SDS011;13371;52.080;5.624;2023-06-24T02:38:32;14.02;;;7.85;;
25449;SDS011;13371;52.080;5.624;2023-06-24T02:40:57;11.80;;;7.55;;
25449;SDS011;13371;52.080;5.624;2023-06-24T02:43:23;10.10;;;7.88;;
25449;SDS011;13371;52.080;5.624;2023-06-24T02:45:49;13.32;;;8.32;;
25449;SDS011;13371;52.080;5.624;2023-06-24T02:48:15;13.20;;;7.43;;
25449;SDS011;13371;52.080;5.624;2023-06-24T02:50:43;16.20;;;8.52;;
25449;SDS011;13371;52.080;5.624;2023-06-24T02:53:10;12.27;;;8.60;;
25449;SDS011;13371;52.080;5.624;2023-06-24T02:55:36;13.25;;;8.73;;
25449;SDS011;13371;52.080;5.624;2023-06-24T02:58:04;12.75;;;9.20;;
25449;SDS011;13371;52.080;5.624;2023-06-24T03:00:33;13.68;;;9.07;;
25449;SDS011;13371;52.080;5.624;2023-06-24T03:03:00;18.88;;;8.98;;
25449;SDS011;13371;52.080;5.624;2023-06-24T03:05:27;16.85;;;9.20;;
25449;SDS011;13371;52.080;5.624;2023-06-24T03:07:54;14.32;;;9.25;;
25449;SDS011;13371;52.080;5.624;2023-06-24T03:10:19;13.57;;;9.48;;
25449;SDS011;13371;52.080;5.624;2023-06-24T03:12:47;13.90;;;9.55;;
25449;SDS011;13371;52.080;5.624;2023-06-24T03:15:13;14.93;;;9.20;;
25449;SDS011;13371;52.080;5.624;2023-06-24T03:17:39;13.73;;;9.60;;
25449;SDS011;13371;52.080;5.624;2023-06-24T03:20:04;12.88;;;9.88;;
25449;SDS011;13371;52.080;5.624;2023-06-24T03:22:31;14.00;;;9.20;;
25449;SDS011;13371;52.080;5.624;2023-06-24T03:24:57;15.00;;;10.13;;
25449;SDS011;13371;52.080;5.624;2023-06-24T03:27:23;18.73;;;11.80;;
25449;SDS011;13371;52.080;5.624;2023-06-24T03:29:49;18.13;;;10.35;;
25449;SDS011;13371;52.080;5.624;2023-06-24T03:32:15;17.65;;;10.20;;
25449;SDS011;13371;52.080;5.624;2023-06-24T03:34:40;13.73;;;9.43;;
25449;SDS011;13371;52.080;5.624;2023-06-24T03:37:06;15.55;;;10.13;;
25449;SDS011;13371;52.080;5.624;2023-06-24T03:39:32;13.20;;;9.75;;
25449;SDS011;13371;52.080;5.624;2023-06-24T03:41:57;16.80;;;10.10;;
25449;SDS011;13371;52.080;5.624;2023-06-24T03:44:23;16.40;;;9.73;;
25449;SDS011;13371;52.080;5.624;2023-06-24T03:46:49;15.50;;;9.80;;
25449;SDS011;13371;52.080;5.624;2023-06-24T03:49:14;14.20;;;9.25;;
25449;SDS011;13371;52.080;5.624;2023-06-24T03:51:40;14.23;;;9.55;;
25449;SDS011;13371;52.080;5.624;2023-06-24T03:54:05;13.93;;;9.52;;
25449;SDS011;13371;52.080;5.624;2023-06-24T03:56:31;14.20;;;9.52;;
25449;SDS011;13371;52.080;5.624;2023-06-24T03:58:56;14.77;;;9.55;;
25449;SDS011;13371;52.080;5.624;2023-06-24T04:01:22;15.52;;;9.88;;
25449;SDS011;13371;52.080;5.624;2023-06-24T04:03:47;13.30;;;9.55;;
25449;SDS011;13371;52.080;5.624;2023-06-24T04:06:13;16.20;;;9.75;;
25449;SDS011;13371;52.080;5.624;2023-06-24T04:08:39;14.85;;;10.30;;
25449;SDS011;13371;52.080;5.624;2023-06-24T04:11:04;19.00;;;10.82;;
25449;SDS011;13371;52.080;5.624;2023-06-24T04:13:32;13.88;;;10.65;;
25449;SDS011;13371;52.080;5.624;2023-06-24T04:15:58;17.10;;;11.05;;
25449;SDS011;13371;52.080;5.624;2023-06-24T04:18:23;13.27;;;10.27;;
25449;SDS011;13371;52.080;5.624;2023-06-24T04:20:49;20.13;;;10.45;;
25449;SDS011;13371;52.080;5.624;2023-06-24T04:23:14;17.35;;;10.75;;
25449;SDS011;13371;52.080;5.624;2023-06-24T04:25:40;16.73;;;10.25;;
25449;SDS011;13371;52.080;5.624;2023-06-24T04:28:07;17.85;;;10.32;;
25449;SDS011;13371;52.080;5.624;2023-06-24T04:30:32;19.52;;;10.43;;
25449;SDS011;13371;52.080;5.624;2023-06-24T04:33:00;22.98;;;10.73;;
25449;SDS011;13371;52.080;5.624;2023-06-24T04:35:26;20.05;;;10.38;;
25449;SDS011;13371;52.080;5.624;2023-06-24T04:37:52;16.70;;;9.90;;
25449;SDS011;13371;52.080;5.624;2023-06-24T04:40:17;19.23;;;10.82;;
25449;SDS011;13371;52.080;5.624;2023-06-24T04:42:44;15.68;;;10.75;;
25449;SDS011;13371;52.080;5.624;2023-06-24T04:45:10;15.07;;;10.52;;
25449;SDS011;13371;52.080;5.624;2023-06-24T04:47:36;17.70;;;10.20;;
25449;SDS011;13371;52.080;5.624;2023-06-24T04:50:02;14.80;;;10.00;;
25449;SDS011;13371;52.080;5.624;2023-06-24T04:52:27;24.20;;;11.40;;
25449;SDS011;13371;52.080;5.624;2023-06-24T04:54:53;17.77;;;11.27;;
25449;SDS011;13371;52.080;5.624;2023-06-24T04:57:29;18.10;;;12.07;;
25449;SDS011;13371;52.080;5.624;2023-06-24T04:59:56;18.42;;;11.70;;
25449;SDS011;13371;52.080;5.624;2023-06-24T05:02:22;19.83;;;11.82;;
25449;SDS011;13371;52.080;5.624;2023-06-24T05:04:48;18.52;;;11.65;;
25449;SDS011;13371;52.080;5.624;2023-06-24T05:07:14;17.77;;;11.52;;
25449;SDS011;13371;52.080;5.624;2023-06-24T05:09:40;17.38;;;12.23;;
25449;SDS011;13371;52.080;5.624;2023-06-24T05:12:05;19.55;;;11.30;;
25449;SDS011;13371;52.080;5.624;2023-06-24T05:14:33;19.38;;;10.93;;
25449;SDS011;13371;52.080;5.624;2023-06-24T05:16:59;18.42;;;10.77;;
25449;SDS011;13371;52.080;5.624;2023-06-24T05:19:25;14.63;;;9.73;;
25449;SDS011;13371;52.080;5.624;2023-06-24T05:21:51;21.50;;;10.60;;
25449;SDS011;13371;52.080;5.624;2023-06-24T05:24:16;15.68;;;9.60;;
25449;SDS011;13371;52.080;5.624;2023-06-24T05:26:42;11.02;;;8.35;;
25449;SDS011;13371;52.080;5.624;2023-06-24T05:29:09;14.38;;;8.60;;
25449;SDS011;13371;52.080;5.624;2023-06-24T05:31:36;13.88;;;8.20;;
25449;SDS011;13371;52.080;5.624;2023-06-24T05:34:02;13.57;;;7.75;;
25449;SDS011;13371;52.080;5.624;2023-06-24T05:36:28;13.45;;;8.63;;
25449;SDS011;13371;52.080;5.624;2023-06-24T05:38:53;14.05;;;8.20;;
25449;SDS011;13371;52.080;5.624;2023-06-24T05:41:19;13.02;;;7.55;;
25449;SDS011;13371;52.080;5.624;2023-06-24T05:43:45;15.50;;;7.80;;
25449;SDS011;13371;52.080;5.624;2023-06-24T05:46:10;13.20;;;7.13;;
25449;SDS011;13371;52.080;5.624;2023-06-24T05:48:36;11.13;;;6.95;;
25449;SDS011;13371;52.080;5.624;2023-06-24T05:51:02;14.40;;;7.90;;
25449;SDS011;13371;52.080;5.624;2023-06-24T05:53:28;10.65;;;6.50;;
25449;SDS011;13371;52.080;5.624;2023-06-24T05:55:53;10.85;;;6.97;;
25449;SDS011;13371;52.080;5.624;2023-06-24T05:58:19;9.80;;;6.63;;
25449;SDS011;13371;52.080;5.624;2023-06-24T06:00:48;11.52;;;6.60;;
25449;SDS011;13371;52.080;5.624;2023-06-24T06:03:16;14.20;;;5.93;;
25449;SDS011;13371;52.080;5.624;2023-06-24T06:05:52;10.77;;;4.97;;
25449;SDS011;13371;52.080;5.624;2023-06-24T06:08:17;9.23;;;5.18;;
25449;SDS011;13371;52.080;5.624;2023-06-24T06:10:45;8.90;;;4.93;;
25449;SDS011;13371;52.080;5.624;2023-06-24T06:13:11;7.88;;;4.32;;
25449;SDS011;13371;52.080;5.624;2023-06-24T06:15:55;9.20;;;4.40;;
25449;SDS011;13371;52.080;5.624;2023-06-24T06:18:21;11.15;;;4.43;;
25449;SDS011;13371;52.080;5.624;2023-06-24T06:20:47;6.72;;;4.22;;
25449;SDS011;13371;52.080;5.624;2023-06-24T06:23:13;7.43;;;4.68;;
25449;SDS011;13371;52.080;5.624;2023-06-24T06:25:38;9.15;;;5.18;;
25449;SDS011;13371;52.080;5.624;2023-06-24T06:28:04;8.70;;;4.60;;
25449;SDS011;13371;52.080;5.624;2023-06-24T06:30:30;6.25;;;4.55;;
25449;SDS011;13371;52.080;5.624;2023-06-24T06:32:56;7.10;;;4.85;;
25449;SDS011;13371;52.080;5.624;2023-06-24T06:35:21;6.50;;;4.38;;
25449;SDS011;13371;52.080;5.624;2023-06-24T06:37:47;8.05;;;4.82;;
25449;SDS011;13371;52.080;5.624;2023-06-24T06:40:17;7.10;;;4.85;;
25449;SDS011;13371;52.080;5.624;2023-06-24T06:42:46;7.63;;;4.65;;
25449;SDS011;13371;52.080;5.624;2023-06-24T06:45:12;6.80;;;4.28;;
25449;SDS011;13371;52.080;5.624;2023-06-24T06:47:38;7.57;;;4.82;;
25449;SDS011;13371;52.080;5.624;2023-06-24T06:50:06;7.93;;;4.85;;
25449;SDS011;13371;52.080;5.624;2023-06-24T06:52:47;7.88;;;4.85;;
25449;SDS011;13371;52.080;5.624;2023-06-24T06:55:19;7.80;;;4.68;;
25449;SDS011;13371;52.080;5.624;2023-06-24T06:57:48;6.68;;;4.40;;
25449;SDS011;13371;52.080;5.624;2023-06-24T07:00:14;9.25;;;5.10;;
25449;SDS011;13371;52.080;5.624;2023-06-24T07:02:43;9.73;;;5.47;;
25449;SDS011;13371;52.080;5.624;2023-06-24T07:05:08;7.57;;;4.55;;
25449;SDS011;13371;52.080;5.624;2023-06-24T07:07:36;16.00;;;5.20;;
25449;SDS011;13371;52.080;5.624;2023-06-24T07:10:05;7.75;;;4.68;;
25449;SDS011;13371;52.080;5.624;2023-06-24T07:12:31;9.52;;;5.10;;
25449;SDS011;13371;52.080;5.624;2023-06-24T07:14:56;6.78;;;4.65;;
25449;SDS011;13371;52.080;5.624;2023-06-24T07:17:22;7.35;;;4.75;;
25449;SDS011;13371;52.080;5.624;2023-06-24T07:19:48;5.93;;;3.85;;
25449;SDS011;13371;52.080;5.624;2023-06-24T07:22:14;6.78;;;4.00;;
25449;SDS011;13371;52.080;5.624;2023-06-24T07:24:40;6.40;;;3.92;;
25449;SDS011;13371;52.080;5.624;2023-06-24T07:27:06;7.53;;;3.88;;
25449;SDS011;13371;52.080;5.624;2023-06-24T07:29:32;5.85;;;3.58;;
25449;SDS011;13371;52.080;5.624;2023-06-24T07:31:58;7.10;;;4.25;;
25449;SDS011;13371;52.080;5.624;2023-06-24T07:34:23;7.43;;;4.30;;
25449;SDS011;13371;52.080;5.624;2023-06-24T07:36:49;6.82;;;4.20;;
25449;SDS011;13371;52.080;5.624;2023-06-24T07:39:15;5.93;;;3.72;;
25449;SDS011;13371;52.080;5.624;2023-06-24T07:41:41;5.95;;;3.28;;
25449;SDS011;13371;52.080;5.624;2023-06-24T07:44:07;5.28;;;3.00;;
25449;SDS011;13371;52.080;5.624;2023-06-24T07:46:34;6.40;;;2.97;;
25449;SDS011;13371;52.080;5.624;2023-06-24T07:48:59;6.93;;;2.70;;
25449;SDS011;13371;52.080;5.624;2023-06-24T07:51:25;3.80;;;2.03;;
25449;SDS011;13371;52.080;5.624;2023-06-24T07:53:51;3.28;;;2.10;;
25449;SDS011;13371;52.080;5.624;2023-06-24T07:56:17;4.72;;;2.17;;
25449;SDS011;13371;52.080;5.624;2023-06-24T07:58:43;4.65;;;2.70;;
25449;SDS011;13371;52.080;5.624;2023-06-24T08:01:08;4.85;;;2.95;;
25449;SDS011;13371;52.080;5.624;2023-06-24T08:03:34;4.95;;;2.63;;
25449;SDS011;13371;52.080;5.624;2023-06-24T08:06:01;7.20;;;3.05;;
25449;SDS011;13371;52.080;5.624;2023-06-24T08:08:27;7.60;;;3.38;;
25449;SDS011;13371;52.080;5.624;2023-06-24T08:10:53;5.07;;;2.97;;
25449;SDS011;13371;52.080;5.624;2023-06-24T08:13:18;7.13;;;2.70;;
25449;SDS011;13371;52.080;5.624;2023-06-24T08:15:44;8.90;;;3.25;;
25449;SDS011;13371;52.080;5.624;2023-06-24T08:18:10;6.05;;;2.90;;
25449;SDS011;13371;52.080;5.624;2023-06-24T08:20:35;7.07;;;3.42;;
25449;SDS011;13371;52.080;5.624;2023-06-24T08:23:01;9.77;;;3.42;;
25449;SDS011;13371;52.080;5.624;2023-06-24T08:25:27;5.07;;;2.92;;
25449;SDS011;13371;52.080;5.624;2023-06-24T08:27:53;5.90;;;3.47;;
25449;SDS011;13371;52.080;5.624;2023-06-24T08:30:18;6.55;;;3.10;;
25449;SDS011;13371;52.080;5.624;2023-06-24T08:32:44;4.03;;;2.20;;
25449;SDS011;13371;52.080;5.624;2023-06-24T08:35:10;5.60;;;2.60;;
25449;SDS011;13371;52.080;5.624;2023-06-24T08:37:36;5.13;;;2.63;;
25449;SDS011;13371;52.080;5.624;2023-06-24T08:40:02;4.60;;;2.75;;
25449;SDS011;13371;52.080;5.624;2023-06-24T08:42:32;4.75;;;3.03;;
25449;SDS011;13371;52.080;5.624;2023-06-24T08:44:58;4.13;;;2.83;;
25449;SDS011;13371;52.080;5.624;2023-06-24T08:47:23;4.57;;;3.10;;
25449;SDS011;13371;52.080;5.624;2023-06-24T08:49:53;4.78;;;3.03;;
25449;SDS011;13371;52.080;5.624;2023-06-24T08:52:29;5.95;;;3.38;;
25449;SDS011;13371;52.080;5.624;2023-06-24T08:54:56;5.03;;;3.03;;
25449;SDS011;13371;52.080;5.624;2023-06-24T08:57:24;8.25;;;3.45;;
25449;SDS011;13371;52.080;5.624;2023-06-24T08:59:50;4.45;;;2.65;;
25449;SDS011;13371;52.080;5.624;2023-06-24T09:02:16;6.97;;;3.75;;
25449;SDS011;13371;52.080;5.624;2023-06-24T09:04:42;7.32;;;3.17;;
25449;SDS011;13371;52.080;5.624;2023-06-24T09:07:07;5.68;;;3.33;;
25449;SDS011;13371;52.080;5.624;2023-06-24T09:09:41;4.47;;;2.97;;
25449;SDS011;13371;52.080;5.624;2023-06-24T09:12:10;4.45;;;2.60;;
25449;SDS011;13371;52.080;5.624;2023-06-24T09:14:37;5.40;;;2.83;;
25449;SDS011;13371;52.080;5.624;2023-06-24T09:17:03;6.10;;;4.00;;
25449;SDS011;13371;52.080;5.624;2023-06-24T09:19:29;6.15;;;3.83;;
25449;SDS011;13371;52.080;5.624;2023-06-24T09:22:02;6.95;;;3.47;;
25449;SDS011;13371;52.080;5.624;2023-06-24T09:24:37;7.55;;;4.18;;
25449;SDS011;13371;52.080;5.624;2023-06-24T09:27:03;7.30;;;4.40;;
25449;SDS011;13371;52.080;5.624;2023-06-24T09:29:33;7.30;;;4.78;;
25449;SDS011;13371;52.080;5.624;2023-06-24T09:32:00;8.63;;;3.67;;
25449;SDS011;13371;52.080;5.624;2023-06-24T09:34:29;8.95;;;3.90;;
25449;SDS011;13371;52.080;5.624;2023-06-24T09:36:57;8.35;;;3.67;;
25449;SDS011;13371;52.080;5.624;2023-06-24T09:39:24;9.43;;;4.03;;
25449;SDS011;13371;52.080;5.624;2023-06-24T09:41:57;6.65;;;3.17;;
25449;SDS011;13371;52.080;5.624;2023-06-24T09:44:27;6.10;;;3.33;;
25449;SDS011;13371;52.080;5.624;2023-06-24T09:46:53;8.10;;;3.50;;
25449;SDS011;13371;52.080;5.624;2023-06-24T09:49:21;6.70;;;3.45;;
25449;SDS011;13371;52.080;5.624;2023-06-24T09:51:47;5.60;;;3.70;;
25449;SDS011;13371;52.080;5.624;2023-06-24T09:54:15;6.90;;;3.50;;
25449;SDS011;13371;52.080;5.624;2023-06-24T09:56:50;7.20;;;3.60;;
25449;SDS011;13371;52.080;5.624;2023-06-24T09:59:18;5.68;;;3.33;;
25449;SDS011;13371;52.080;5.624;2023-06-24T10:01:45;6.00;;;3.60;;
25449;SDS011;13371;52.080;5.624;2023-06-24T10:04:15;5.45;;;3.45;;
25449;SDS011;13371;52.080;5.624;2023-06-24T10:06:42;7.38;;;3.92;;
25449;SDS011;13371;52.080;5.624;2023-06-24T10:09:08;7.82;;;4.10;;
25449;SDS011;13371;52.080;5.624;2023-06-24T10:11:35;6.53;;;4.00;;
25449;SDS011;13371;52.080;5.624;2023-06-24T10:14:01;6.57;;;3.30;;
25449;SDS011;13371;52.080;5.624;2023-06-24T10:16:27;5.85;;;3.55;;
25449;SDS011;13371;52.080;5.624;2023-06-24T10:18:59;5.00;;;3.40;;
25449;SDS011;13371;52.080;5.624;2023-06-24T10:26:39;7.30;;;3.97;;
25449;SDS011;13371;52.080;5.624;2023-06-24T10:29:39;7.32;;;4.35;;
25449;SDS011;13371;52.080;5.624;2023-06-24T10:32:11;7.93;;;4.05;;
25449;SDS011;13371;52.080;5.624;2023-06-24T10:34:45;7.32;;;4.00;;
25449;SDS011;13371;52.080;5.624;2023-06-24T10:42:36;5.97;;;3.80;;
25449;SDS011;13371;52.080;5.624;2023-06-24T10:45:13;5.30;;;3.65;;
25449;SDS011;13371;52.080;5.624;2023-06-24T10:48:12;6.40;;;4.28;;
25449;SDS011;13371;52.080;5.624;2023-06-24T10:50:43;7.85;;;4.30;;
25449;SDS011;13371;52.080;5.624;2023-06-24T10:53:21;7.13;;;4.65;;
25449;SDS011;13371;52.080;5.624;2023-06-24T10:55:59;7.45;;;4.43;;
25449;SDS011;13371;52.080;5.624;2023-06-24T10:58:27;7.57;;;3.95;;
25449;SDS011;13371;52.080;5.624;2023-06-24T11:01:17;8.57;;;3.80;;
25449;SDS011;13371;52.080;5.624;2023-06-24T11:03:43;5.68;;;3.42;;
25449;SDS011;13371;52.080;5.624;2023-06-24T11:06:10;8.00;;;4.40;;
25449;SDS011;13371;52.080;5.624;2023-06-24T11:08:46;6.95;;;4.15;;
25449;SDS011;13371;52.080;5.624;2023-06-24T11:11:35;6.40;;;4.15;;
25449;SDS011;13371;52.080;5.624;2023-06-24T11:14:03;8.15;;;4.80;;
25449;SDS011;13371;52.080;5.624;2023-06-24T11:16:29;8.73;;;4.35;;
25449;SDS011;13371;52.080;5.624;2023-06-24T11:19:02;6.70;;;3.83;;
25449;SDS011;13371;52.080;5.624;2023-06-24T11:21:33;6.65;;;3.80;;
25449;SDS011;13371;52.080;5.624;2023-06-24T11:24:07;5.45;;;3.63;;
25449;SDS011;13371;52.080;5.624;2023-06-24T11:26:42;5.72;;;3.38;;
25449;SDS011;13371;52.080;5.624;2023-06-24T11:29:33;6.55;;;3.97;;
25449;SDS011;13371;52.080;5.624;2023-06-24T11:32:07;5.95;;;3.65;;
25449;SDS011;13371;52.080;5.624;2023-06-24T11:34:34;7.55;;;4.90;;
25449;SDS011;13371;52.080;5.624;2023-06-24T11:37:13;9.43;;;4.47;;
25449;SDS011;13371;52.080;5.624;2023-06-24T11:40:03;5.27;;;3.93;;
25449;SDS011;13371;52.080;5.624;2023-06-24T11:42:31;5.15;;;3.42;;
25449;SDS011;13371;52.080;5.624;2023-06-24T11:45:04;8.13;;;4.82;;
25449;SDS011;13371;52.080;5.624;2023-06-24T11:47:35;6.00;;;3.78;;
25449;SDS011;13371;52.080;5.624;2023-06-24T11:50:07;6.45;;;4.57;;
25449;SDS011;13371;52.080;5.624;2023-06-24T11:52:40;6.82;;;3.92;;
25449;SDS011;13371;52.080;5.624;2023-06-24T12:00:28;5.63;;;3.50;;
25449;SDS011;13371;52.080;5.624;2023-06-24T12:03:09;5.97;;;3.83;;
25449;SDS011;13371;52.080;5.624;2023-06-24T12:05:42;5.82;;;3.72;;
25449;SDS011;13371;52.080;5.624;2023-06-24T12:08:12;5.78;;;3.95;;
25449;SDS011;13371;52.080;5.624;2023-06-24T12:10:42;7.55;;;3.65;;
25449;SDS011;13371;52.080;5.624;2023-06-24T12:13:09;7.03;;;4.53;;
25449;SDS011;13371;52.080;5.624;2023-06-24T12:15:35;7.00;;;4.00;;
25449;SDS011;13371;52.080;5.624;2023-06-24T12:18:03;9.52;;;4.72;;
25449;SDS011;13371;52.080;5.624;2023-06-24T12:20:38;6.15;;;3.33;;
25449;SDS011;13371;52.080;5.624;2023-06-24T12:23:25;7.03;;;3.88;;
25449;SDS011;13371;52.080;5.624;2023-06-24T12:26:02;5.07;;;3.33;;
25449;SDS011;13371;52.080;5.624;2023-06-24T12:28:28;4.22;;;2.95;;
25449;SDS011;13371;52.080;5.624;2023-06-24T12:30:54;5.55;;;3.40;;
25449;SDS011;13371;52.080;5.624;2023-06-24T12:33:28;5.22;;;3.63;;
25449;SDS011;13371;52.080;5.624;2023-06-24T12:36:37;6.53;;;4.30;;
25449;SDS011;13371;52.080;5.624;2023-06-24T12:39:08;4.05;;;2.88;;
25449;SDS011;13371;52.080;5.624;2023-06-24T12:41:45;5.57;;;3.10;;
25449;SDS011;13371;52.080;5.624;2023-06-24T12:44:24;5.72;;;3.83;;
25449;SDS011;13371;52.080;5.624;2023-06-24T12:46:53;8.23;;;3.90;;
25449;SDS011;13371;52.080;5.624;2023-06-24T12:49:34;5.18;;;3.53;;
25449;SDS011;13371;52.080;5.624;2023-06-24T12:52:24;5.70;;;3.72;;
25449;SDS011;13371;52.080;5.624;2023-06-24T12:55:04;6.13;;;3.08;;
25449;SDS011;13371;52.080;5.624;2023-06-24T12:57:46;4.60;;;3.20;;
25449;SDS011;13371;52.080;5.624;2023-06-24T13:00:23;5.20;;;3.22;;
25449;SDS011;13371;52.080;5.624;2023-06-24T13:02:52;5.20;;;3.13;;
25449;SDS011;13371;52.080;5.624;2023-06-24T13:05:32;5.18;;;3.28;;
25449;SDS011;13371;52.080;5.624;2023-06-24T13:08:06;7.25;;;3.53;;
25449;SDS011;13371;52.080;5.624;2023-06-24T13:10:52;5.65;;;3.20;;
25449;SDS011;13371;52.080;5.624;2023-06-24T13:13:20;7.03;;;3.78;;
25449;SDS011;13371;52.080;5.624;2023-06-24T13:15:48;5.57;;;3.83;;
25449;SDS011;13371;52.080;5.624;2023-06-24T13:18:31;6.10;;;3.70;;
25449;SDS011;13371;52.080;5.624;2023-06-24T13:20:57;6.43;;;3.67;;
25449;SDS011;13371;52.080;5.624;2023-06-24T13:23:23;9.38;;;3.72;;
25449;SDS011;13371;52.080;5.624;2023-06-24T13:25:51;5.15;;;3.50;;
25449;SDS011;13371;52.080;5.624;2023-06-24T13:28:16;7.82;;;3.53;;
25449;SDS011;13371;52.080;5.624;2023-06-24T13:30:47;6.55;;;4.22;;
25449;SDS011;13371;52.080;5.624;2023-06-24T13:33:20;8.85;;;4.75;;
25449;SDS011;13371;52.080;5.624;2023-06-24T13:35:46;6.07;;;4.18;;
25449;SDS011;13371;52.080;5.624;2023-06-24T13:38:11;5.68;;;3.92;;
25449;SDS011;13371;52.080;5.624;2023-06-24T13:40:38;6.95;;;3.97;;
25449;SDS011;13371;52.080;5.624;2023-06-24T13:43:04;8.32;;;3.95;;
25449;SDS011;13371;52.080;5.624;2023-06-24T13:45:30;4.50;;;3.17;;
25449;SDS011;13371;52.080;5.624;2023-06-24T13:47:55;7.32;;;3.53;;
25449;SDS011;13371;52.080;5.624;2023-06-24T13:50:21;6.32;;;3.50;;
25449;SDS011;13371;52.080;5.624;2023-06-24T13:52:47;5.57;;;3.45;;
25449;SDS011;13371;52.080;5.624;2023-06-24T13:55:12;4.70;;;3.15;;
25449;SDS011;13371;52.080;5.624;2023-06-24T13:57:38;6.80;;;4.25;;
25449;SDS011;13371;52.080;5.624;2023-06-24T14:00:04;6.90;;;4.00;;
25449;SDS011;13371;52.080;5.624;2023-06-24T14:02:30;7.40;;;3.33;;
25449;SDS011;13371;52.080;5.624;2023-06-24T14:04:55;7.97;;;4.78;;
25449;SDS011;13371;52.080;5.624;2023-06-24T14:07:21;7.57;;;3.97;;
25449;SDS011;13371;52.080;5.624;2023-06-24T14:09:50;7.40;;;4.53;;
25449;SDS011;13371;52.080;5.624;2023-06-24T14:12:15;7.05;;;4.60;;
25449;SDS011;13371;52.080;5.624;2023-06-24T14:14:41;9.95;;;5.30;;
25449;SDS011;13371;52.080;5.624;2023-06-24T14:17:07;6.38;;;4.75;;
25449;SDS011;13371;52.080;5.624;2023-06-24T14:19:37;7.35;;;4.22;;
25449;SDS011;13371;52.080;5.624;2023-06-24T14:22:05;9.65;;;5.32;;
25449;SDS011;13371;52.080;5.624;2023-06-24T14:24:32;7.45;;;4.43;;
25449;SDS011;13371;52.080;5.624;2023-06-24T14:26:58;5.90;;;4.05;;
25449;SDS011;13371;52.080;5.624;2023-06-24T14:29:24;6.57;;;4.18;;
25449;SDS011;13371;52.080;5.624;2023-06-24T14:31:50;6.32;;;4.05;;
25449;SDS011;13371;52.080;5.624;2023-06-24T14:34:17;6.45;;;4.00;;
25449;SDS011;13371;52.080;5.624;2023-06-24T14:36:43;8.85;;;4.28;;
25449;SDS011;13371;52.080;5.624;2023-06-24T14:39:09;8.80;;;4.57;;
25449;SDS011;13371;52.080;5.624;2023-06-24T14:41:37;10.07;;;4.82;;
25449;SDS011;13371;52.080;5.624;2023-06-24T14:44:03;6.53;;;4.15;;
25449;SDS011;13371;52.080;5.624;2023-06-24T14:46:28;6.90;;;3.75;;
25449;SDS011;13371;52.080;5.624;2023-06-24T14:48:54;6.13;;;4.30;;
25449;SDS011;13371;52.080;5.624;2023-06-24T14:51:20;8.23;;;5.93;;
25449;SDS011;13371;52.080;5.624;2023-06-24T14:53:45;7.20;;;4.82;;
25449;SDS011;13371;52.080;5.624;2023-06-24T14:56:11;9.80;;;5.25;;
25449;SDS011;13371;52.080;5.624;2023-06-24T14:58:36;10.18;;;5.28;;
25449;SDS011;13371;52.080;5.624;2023-06-24T15:01:02;11.13;;;6.13;;
25449;SDS011;13371;52.080;5.624;2023-06-24T15:03:28;7.75;;;4.82;;
25449;SDS011;13371;52.080;5.624;2023-06-24T15:05:53;7.20;;;4.72;;
25449;SDS011;13371;52.080;5.624;2023-06-24T15:08:19;6.93;;;4.70;;
25449;SDS011;13371;52.080;5.624;2023-06-24T15:10:44;8.43;;;5.60;;
25449;SDS011;13371;52.080;5.624;2023-06-24T15:13:10;7.05;;;4.20;;
25449;SDS011;13371;52.080;5.624;2023-06-24T15:15:36;8.32;;;4.70;;
25449;SDS011;13371;52.080;5.624;2023-06-24T15:18:01;9.25;;;4.57;;